sensor_id;sensor_type;location;lat;lon;timestamp;P1;durP1;ratioP1;P2;durP2;ratioP2
79249;SDS011;68679;51.030;7.584;2023-08-06T00:00:27;8.63;;;4.10;;
79249;SDS011;68679;51.030;7.584;2023-08-06T00:02:52;7.00;;;3.22;;
79249;SDS011;68679;51.030;7.584;2023-08-06T00:05:17;10.40;;;3.80;;
79249;SDS011;68679;51.030;7.584;2023-08-06T00:07:46;7.97;;;4.35;;
79249;SDS011;68679;51.030;7.584;2023-08-06T00:10:12;8.02;;;3.58;;
79249;SDS011;68679;51.030;7.584;2023-08-06T00:12:37;9.90;;;4.10;;
79249;SDS011;68679;51.030;7.584;2023-08-06T00:15:03;8.97;;;3.73;;
79249;SDS011;68679;51.030;7.584;2023-08-06T00:17:28;7.20;;;3.70;;
79249;SDS011;68679;51.030;7.584;2023-08-06T00:19:53;8.73;;;3.40;;
79249;SDS011;68679;51.030;7.584;2023-08-06T00:22:19;8.57;;;4.37;;
79249;SDS011;68679;51.030;7.584;2023-08-06T00:24:44;10.47;;;3.83;;
79249;SDS011;68679;51.030;7.584;2023-08-06T00:27:09;6.77;;;4.00;;
79249;SDS011;68679;51.030;7.584;2023-08-06T00:29:34;8.37;;;3.40;;
79249;SDS011;68679;51.030;7.584;2023-08-06T00:32:00;5.93;;;3.60;;
79249;SDS011;68679;51.030;7.584;2023-08-06T00:34:25;7.57;;;4.60;;
79249;SDS011;68679;51.030;7.584;2023-08-06T00:36:50;9.10;;;3.80;;
79249;SDS011;68679;51.030;7.584;2023-08-06T00:39:15;9.93;;;3.90;;
79249;SDS011;68679;51.030;7.584;2023-08-06T00:41:41;8.83;;;3.50;;
79249;SDS011;68679;51.030;7.584;2023-08-06T00:44:06;6.90;;;4.33;;
79249;SDS011;68679;51.030;7.584;2023-08-06T00:46:31;10.23;;;4.07;;
79249;SDS011;68679;51.030;7.584;2023-08-06T00:48:58;7.40;;;3.92;;
79249;SDS011;68679;51.030;7.584;2023-08-06T00:51:24;7.57;;;3.58;;
79249;SDS011;68679;51.030;7.584;2023-08-06T00:53:50;9.05;;;3.85;;
79249;SDS011;68679;51.030;7.584;2023-08-06T00:56:17;6.88;;;3.72;;
79249;SDS011;68679;51.030;7.584;2023-08-06T00:58:42;7.43;;;3.97;;
79249;SDS011;68679;51.030;7.584;2023-08-06T01:01:09;7.13;;;3.38;;
79249;SDS011;68679;51.030;7.584;2023-08-06T01:03:35;6.40;;;3.65;;
79249;SDS011;68679;51.030;7.584;2023-08-06T01:06:00;6.57;;;3.42;;
79249;SDS011;68679;51.030;7.584;2023-08-06T01:08:48;8.80;;;4.07;;
79249;SDS011;68679;51.030;7.584;2023-08-06T01:11:42;5.35;;;3.53;;
79249;SDS011;68679;51.030;7.584;2023-08-06T01:14:23;7.07;;;3.80;;
79249;SDS011;68679;51.030;7.584;2023-08-06T01:17:02;6.95;;;3.65;;
79249;SDS011;68679;51.030;7.584;2023-08-06T01:19:29;6.65;;;3.72;;
79249;SDS011;68679;51.030;7.584;2023-08-06T01:21:55;7.67;;;3.90;;
79249;SDS011;68679;51.030;7.584;2023-08-06T01:24:20;9.03;;;3.87;;
79249;SDS011;68679;51.030;7.584;2023-08-06T01:26:48;7.00;;;3.77;;
79249;SDS011;68679;51.030;7.584;2023-08-06T01:29:25;8.35;;;4.18;;
79249;SDS011;68679;51.030;7.584;2023-08-06T01:31:57;7.38;;;4.13;;
79249;SDS011;68679;51.030;7.584;2023-08-06T01:34:24;7.45;;;4.10;;
79249;SDS011;68679;51.030;7.584;2023-08-06T01:36:52;6.60;;;3.78;;
79249;SDS011;68679;51.030;7.584;2023-08-06T01:39:18;8.80;;;4.10;;
79249;SDS011;68679;51.030;7.584;2023-08-06T01:41:46;9.50;;;4.65;;
79249;SDS011;68679;51.030;7.584;2023-08-06T01:44:12;5.88;;;3.78;;
79249;SDS011;68679;51.030;7.584;2023-08-06T01:46:37;7.50;;;3.63;;
79249;SDS011;68679;51.030;7.584;2023-08-06T01:49:02;8.23;;;3.70;;
79249;SDS011;68679;51.030;7.584;2023-08-06T01:51:28;8.63;;;3.70;;
79249;SDS011;68679;51.030;7.584;2023-08-06T01:53:53;7.10;;;3.67;;
79249;SDS011;68679;51.030;7.584;2023-08-06T01:56:18;10.77;;;4.30;;
79249;SDS011;68679;51.030;7.584;2023-08-06T01:58:43;9.52;;;3.83;;
79249;SDS011;68679;51.030;7.584;2023-08-06T02:01:09;6.77;;;4.00;;
79249;SDS011;68679;51.030;7.584;2023-08-06T02:03:34;6.40;;;3.63;;
79249;SDS011;68679;51.030;7.584;2023-08-06T02:05:59;7.07;;;4.63;;
79249;SDS011;68679;51.030;7.584;2023-08-06T02:08:25;9.17;;;4.03;;
79249;SDS011;68679;51.030;7.584;2023-08-06T02:10:50;6.03;;;3.80;;
79249;SDS011;68679;51.030;7.584;2023-08-06T02:13:15;8.03;;;4.03;;
79249;SDS011;68679;51.030;7.584;2023-08-06T02:15:44;9.90;;;3.97;;
79249;SDS011;68679;51.030;7.584;2023-08-06T02:18:12;8.48;;;4.13;;
79249;SDS011;68679;51.030;7.584;2023-08-06T02:20:37;10.05;;;4.30;;
79249;SDS011;68679;51.030;7.584;2023-08-06T02:23:02;7.77;;;4.57;;
79249;SDS011;68679;51.030;7.584;2023-08-06T02:25:28;6.43;;;3.83;;
79249;SDS011;68679;51.030;7.584;2023-08-06T02:27:53;8.63;;;3.90;;
79249;SDS011;68679;51.030;7.584;2023-08-06T02:30:18;9.47;;;4.03;;
79249;SDS011;68679;51.030;7.584;2023-08-06T02:32:44;5.30;;;3.40;;
79249;SDS011;68679;51.030;7.584;2023-08-06T02:35:09;8.00;;;3.87;;
79249;SDS011;68679;51.030;7.584;2023-08-06T02:37:34;9.17;;;4.30;;
79249;SDS011;68679;51.030;7.584;2023-08-06T02:40:00;5.13;;;3.65;;
79249;SDS011;68679;51.030;7.584;2023-08-06T02:42:26;7.43;;;4.03;;
79249;SDS011;68679;51.030;7.584;2023-08-06T02:44:52;7.45;;;3.45;;
79249;SDS011;68679;51.030;7.584;2023-08-06T02:47:19;7.95;;;3.90;;
79249;SDS011;68679;51.030;7.584;2023-08-06T02:49:45;8.38;;;3.35;;
79249;SDS011;68679;51.030;7.584;2023-08-06T02:52:10;9.73;;;5.80;;
79249;SDS011;68679;51.030;7.584;2023-08-06T02:54:36;5.93;;;3.83;;
79249;SDS011;68679;51.030;7.584;2023-08-06T02:57:01;6.10;;;3.60;;
79249;SDS011;68679;51.030;7.584;2023-08-06T02:59:26;8.13;;;3.67;;
79249;SDS011;68679;51.030;7.584;2023-08-06T03:01:51;8.37;;;4.30;;
79249;SDS011;68679;51.030;7.584;2023-08-06T03:04:17;7.13;;;4.33;;
79249;SDS011;68679;51.030;7.584;2023-08-06T03:06:43;7.97;;;3.63;;
79249;SDS011;68679;51.030;7.584;2023-08-06T03:09:08;6.95;;;3.75;;
79249;SDS011;68679;51.030;7.584;2023-08-06T03:11:33;8.93;;;3.87;;
79249;SDS011;68679;51.030;7.584;2023-08-06T03:13:59;12.27;;;3.97;;
79249;SDS011;68679;51.030;7.584;2023-08-06T03:16:24;6.47;;;3.50;;
79249;SDS011;68679;51.030;7.584;2023-08-06T03:18:49;7.37;;;3.53;;
79249;SDS011;68679;51.030;7.584;2023-08-06T03:21:15;10.03;;;3.30;;
79249;SDS011;68679;51.030;7.584;2023-08-06T03:23:40;6.97;;;3.67;;
79249;SDS011;68679;51.030;7.584;2023-08-06T03:26:05;7.67;;;3.87;;
79249;SDS011;68679;51.030;7.584;2023-08-06T03:28:31;5.97;;;3.10;;
79249;SDS011;68679;51.030;7.584;2023-08-06T03:31:02;6.37;;;3.40;;
79249;SDS011;68679;51.030;7.584;2023-08-06T03:33:28;11.27;;;3.35;;
79249;SDS011;68679;51.030;7.584;2023-08-06T03:35:54;12.35;;;4.45;;
79249;SDS011;68679;51.030;7.584;2023-08-06T03:38:19;8.37;;;3.60;;
79249;SDS011;68679;51.030;7.584;2023-08-06T03:40:45;5.33;;;3.37;;
79249;SDS011;68679;51.030;7.584;2023-08-06T03:43:11;6.55;;;3.65;;
79249;SDS011;68679;51.030;7.584;2023-08-06T03:45:36;10.70;;;3.67;;
79249;SDS011;68679;51.030;7.584;2023-08-06T03:48:01;6.20;;;3.33;;
79249;SDS011;68679;51.030;7.584;2023-08-06T03:50:27;5.70;;;3.30;;
79249;SDS011;68679;51.030;7.584;2023-08-06T03:52:52;5.30;;;3.20;;
79249;SDS011;68679;51.030;7.584;2023-08-06T03:55:17;6.40;;;3.60;;
79249;SDS011;68679;51.030;7.584;2023-08-06T03:57:43;7.67;;;3.63;;
79249;SDS011;68679;51.030;7.584;2023-08-06T04:00:08;6.63;;;3.77;;
79249;SDS011;68679;51.030;7.584;2023-08-06T04:02:34;7.97;;;3.00;;
79249;SDS011;68679;51.030;7.584;2023-08-06T04:05:00;8.17;;;3.57;;
79249;SDS011;68679;51.030;7.584;2023-08-06T04:07:26;7.80;;;3.85;;
79249;SDS011;68679;51.030;7.584;2023-08-06T04:09:55;9.77;;;3.50;;
79249;SDS011;68679;51.030;7.584;2023-08-06T04:12:21;7.82;;;3.70;;
79249;SDS011;68679;51.030;7.584;2023-08-06T04:14:47;7.10;;;3.42;;
79249;SDS011;68679;51.030;7.584;2023-08-06T04:17:12;8.35;;;3.42;;
79249;SDS011;68679;51.030;7.584;2023-08-06T04:19:38;5.90;;;3.78;;
79249;SDS011;68679;51.030;7.584;2023-08-06T04:22:03;7.17;;;3.70;;
79249;SDS011;68679;51.030;7.584;2023-08-06T04:24:28;7.68;;;4.20;;
79249;SDS011;68679;51.030;7.584;2023-08-06T04:26:54;5.50;;;3.80;;
79249;SDS011;68679;51.030;7.584;2023-08-06T04:29:19;5.30;;;3.50;;
79249;SDS011;68679;51.030;7.584;2023-08-06T04:31:44;7.83;;;3.10;;
79249;SDS011;68679;51.030;7.584;2023-08-06T04:34:10;7.20;;;3.43;;
79249;SDS011;68679;51.030;7.584;2023-08-06T04:36:35;9.13;;;4.00;;
79249;SDS011;68679;51.030;7.584;2023-08-06T04:39:00;6.17;;;3.70;;
79249;SDS011;68679;51.030;7.584;2023-08-06T04:41:25;6.67;;;3.37;;
79249;SDS011;68679;51.030;7.584;2023-08-06T04:43:51;8.90;;;4.10;;
79249;SDS011;68679;51.030;7.584;2023-08-06T04:46:16;8.40;;;3.70;;
79249;SDS011;68679;51.030;7.584;2023-08-06T04:48:41;8.50;;;3.60;;
79249;SDS011;68679;51.030;7.584;2023-08-06T04:51:07;8.30;;;3.17;;
79249;SDS011;68679;51.030;7.584;2023-08-06T04:53:32;6.40;;;3.27;;
79249;SDS011;68679;51.030;7.584;2023-08-06T04:55:57;5.97;;;3.38;;
79249;SDS011;68679;51.030;7.584;2023-08-06T04:58:23;6.10;;;3.35;;
79249;SDS011;68679;51.030;7.584;2023-08-06T05:00:48;5.37;;;3.20;;
79249;SDS011;68679;51.030;7.584;2023-08-06T05:03:13;6.53;;;3.75;;
79249;SDS011;68679;51.030;7.584;2023-08-06T05:05:39;6.20;;;3.10;;
79249;SDS011;68679;51.030;7.584;2023-08-06T05:08:06;7.25;;;3.42;;
79249;SDS011;68679;51.030;7.584;2023-08-06T05:10:31;8.03;;;3.80;;
79249;SDS011;68679;51.030;7.584;2023-08-06T05:12:56;6.38;;;3.88;;
79249;SDS011;68679;51.030;7.584;2023-08-06T05:15:22;7.50;;;3.55;;
79249;SDS011;68679;51.030;7.584;2023-08-06T05:17:47;7.17;;;3.80;;
79249;SDS011;68679;51.030;7.584;2023-08-06T05:20:13;7.55;;;3.83;;
79249;SDS011;68679;51.030;7.584;2023-08-06T05:22:38;6.80;;;3.42;;
79249;SDS011;68679;51.030;7.584;2023-08-06T05:25:03;8.82;;;3.20;;
79249;SDS011;68679;51.030;7.584;2023-08-06T05:27:29;5.72;;;2.78;;
79249;SDS011;68679;51.030;7.584;2023-08-06T05:29:57;11.05;;;3.47;;
79249;SDS011;68679;51.030;7.584;2023-08-06T05:32:22;9.50;;;3.40;;
79249;SDS011;68679;51.030;7.584;2023-08-06T05:34:47;7.87;;;3.63;;
79249;SDS011;68679;51.030;7.584;2023-08-06T05:37:13;7.83;;;3.63;;
79249;SDS011;68679;51.030;7.584;2023-08-06T05:39:38;6.63;;;3.53;;
79249;SDS011;68679;51.030;7.584;2023-08-06T05:42:03;6.83;;;3.40;;
79249;SDS011;68679;51.030;7.584;2023-08-06T05:44:29;5.57;;;2.83;;
79249;SDS011;68679;51.030;7.584;2023-08-06T05:46:54;6.53;;;3.07;;
79249;SDS011;68679;51.030;7.584;2023-08-06T05:49:20;6.47;;;3.40;;
79249;SDS011;68679;51.030;7.584;2023-08-06T05:51:45;6.55;;;3.38;;
79249;SDS011;68679;51.030;7.584;2023-08-06T05:54:10;5.50;;;2.97;;
79249;SDS011;68679;51.030;7.584;2023-08-06T05:56:35;10.90;;;3.20;;
79249;SDS011;68679;51.030;7.584;2023-08-06T05:59:01;8.03;;;3.40;;
79249;SDS011;68679;51.030;7.584;2023-08-06T06:01:26;6.07;;;3.20;;
79249;SDS011;68679;51.030;7.584;2023-08-06T06:03:51;5.97;;;3.03;;
79249;SDS011;68679;51.030;7.584;2023-08-06T06:06:17;6.63;;;2.70;;
79249;SDS011;68679;51.030;7.584;2023-08-06T06:08:44;6.60;;;3.42;;
79249;SDS011;68679;51.030;7.584;2023-08-06T06:11:09;4.53;;;2.83;;
79249;SDS011;68679;51.030;7.584;2023-08-06T06:13:35;4.53;;;2.67;;
79249;SDS011;68679;51.030;7.584;2023-08-06T06:16:00;5.87;;;2.80;;
79249;SDS011;68679;51.030;7.584;2023-08-06T06:18:25;5.33;;;2.63;;
79249;SDS011;68679;51.030;7.584;2023-08-06T06:20:50;5.90;;;2.43;;
79249;SDS011;68679;51.030;7.584;2023-08-06T06:23:16;4.50;;;2.30;;
79249;SDS011;68679;51.030;7.584;2023-08-06T06:25:50;3.63;;;2.23;;
79249;SDS011;68679;51.030;7.584;2023-08-06T06:28:19;5.28;;;2.45;;
79249;SDS011;68679;51.030;7.584;2023-08-06T06:30:44;5.32;;;2.60;;
79249;SDS011;68679;51.030;7.584;2023-08-06T06:33:09;5.90;;;2.10;;
79249;SDS011;68679;51.030;7.584;2023-08-06T06:35:35;10.05;;;2.50;;
79249;SDS011;68679;51.030;7.584;2023-08-06T06:38:00;4.18;;;2.40;;
79249;SDS011;68679;51.030;7.584;2023-08-06T06:40:26;4.77;;;2.50;;
79249;SDS011;68679;51.030;7.584;2023-08-06T06:42:51;4.60;;;2.50;;
79249;SDS011;68679;51.030;7.584;2023-08-06T06:45:16;4.30;;;2.13;;
79249;SDS011;68679;51.030;7.584;2023-08-06T06:47:41;7.50;;;3.13;;
79249;SDS011;68679;51.030;7.584;2023-08-06T06:50:07;12.40;;;8.50;;
79249;SDS011;68679;51.030;7.584;2023-08-06T06:52:32;8.70;;;4.00;;
79249;SDS011;68679;51.030;7.584;2023-08-06T06:54:58;3.50;;;2.03;;
79249;SDS011;68679;51.030;7.584;2023-08-06T06:57:23;7.90;;;7.20;;
79249;SDS011;68679;51.030;7.584;2023-08-06T06:59:48;6.03;;;3.80;;
79249;SDS011;68679;51.030;7.584;2023-08-06T07:02:13;6.53;;;5.43;;
79249;SDS011;68679;51.030;7.584;2023-08-06T07:04:39;4.17;;;2.80;;
79249;SDS011;68679;51.030;7.584;2023-08-06T07:07:04;4.90;;;2.60;;
79249;SDS011;68679;51.030;7.584;2023-08-06T07:09:29;13.75;;;10.35;;
79249;SDS011;68679;51.030;7.584;2023-08-06T07:11:55;6.20;;;2.23;;
79249;SDS011;68679;51.030;7.584;2023-08-06T07:14:20;3.43;;;1.47;;
79249;SDS011;68679;51.030;7.584;2023-08-06T07:16:45;2.60;;;1.40;;
79249;SDS011;68679;51.030;7.584;2023-08-06T07:19:11;3.08;;;1.30;;
79249;SDS011;68679;51.030;7.584;2023-08-06T07:21:36;2.20;;;1.45;;
79249;SDS011;68679;51.030;7.584;2023-08-06T07:24:01;2.00;;;1.20;;
79249;SDS011;68679;51.030;7.584;2023-08-06T07:26:27;3.75;;;1.50;;
79249;SDS011;68679;51.030;7.584;2023-08-06T07:28:52;2.58;;;1.35;;
79249;SDS011;68679;51.030;7.584;2023-08-06T07:31:17;3.67;;;1.40;;
79249;SDS011;68679;51.030;7.584;2023-08-06T07:33:43;5.40;;;1.53;;
79249;SDS011;68679;51.030;7.584;2023-08-06T07:36:11;2.27;;;1.20;;
79249;SDS011;68679;51.030;7.584;2023-08-06T07:38:38;2.40;;;1.30;;
79249;SDS011;68679;51.030;7.584;2023-08-06T07:41:03;2.25;;;1.10;;
79249;SDS011;68679;51.030;7.584;2023-08-06T07:43:29;2.55;;;1.20;;
79249;SDS011;68679;51.030;7.584;2023-08-06T07:45:57;1.92;;;1.13;;
79249;SDS011;68679;51.030;7.584;2023-08-06T07:48:23;2.13;;;1.10;;
79249;SDS011;68679;51.030;7.584;2023-08-06T07:50:51;7.80;;;1.47;;
79249;SDS011;68679;51.030;7.584;2023-08-06T07:53:20;3.13;;;1.67;;
79249;SDS011;68679;51.030;7.584;2023-08-06T07:55:50;4.70;;;2.42;;
79249;SDS011;68679;51.030;7.584;2023-08-06T08:00:41;2.30;;;1.10;;
79249;SDS011;68679;51.030;7.584;2023-08-06T08:03:09;3.78;;;1.10;;
79249;SDS011;68679;51.030;7.584;2023-08-06T08:05:34;1.83;;;1.07;;
79249;SDS011;68679;51.030;7.584;2023-08-06T08:07:59;4.93;;;2.00;;
79249;SDS011;68679;51.030;7.584;2023-08-06T08:10:25;2.43;;;1.20;;
79249;SDS011;68679;51.030;7.584;2023-08-06T08:12:50;13.13;;;11.93;;
79249;SDS011;68679;51.030;7.584;2023-08-06T08:15:15;3.08;;;2.55;;
79249;SDS011;68679;51.030;7.584;2023-08-06T08:17:41;8.43;;;6.97;;
79249;SDS011;68679;51.030;7.584;2023-08-06T08:20:06;2.40;;;1.80;;
79249;SDS011;68679;51.030;7.584;2023-08-06T08:22:32;0.98;;;0.70;;
79249;SDS011;68679;51.030;7.584;2023-08-06T08:24:57;0.60;;;0.47;;
79249;SDS011;68679;51.030;7.584;2023-08-06T08:27:22;0.98;;;0.60;;
79249;SDS011;68679;51.030;7.584;2023-08-06T08:29:48;1.43;;;0.73;;
79249;SDS011;68679;51.030;7.584;2023-08-06T08:32:13;2.10;;;0.60;;
79249;SDS011;68679;51.030;7.584;2023-08-06T08:34:38;0.90;;;0.60;;
79249;SDS011;68679;51.030;7.584;2023-08-06T08:37:03;0.97;;;0.60;;
79249;SDS011;68679;51.030;7.584;2023-08-06T08:39:31;1.05;;;0.70;;
79249;SDS011;68679;51.030;7.584;2023-08-06T08:41:56;1.33;;;0.80;;
79249;SDS011;68679;51.030;7.584;2023-08-06T08:44:21;1.45;;;0.63;;
79249;SDS011;68679;51.030;7.584;2023-08-06T08:46:48;1.23;;;0.73;;
79249;SDS011;68679;51.030;7.584;2023-08-06T08:49:14;1.05;;;0.70;;
79249;SDS011;68679;51.030;7.584;2023-08-06T08:51:39;0.63;;;0.60;;
79249;SDS011;68679;51.030;7.584;2023-08-06T08:54:05;0.90;;;0.60;;
79249;SDS011;68679;51.030;7.584;2023-08-06T08:56:33;1.38;;;0.70;;
79249;SDS011;68679;51.030;7.584;2023-08-06T08:58:58;1.90;;;0.80;;
79249;SDS011;68679;51.030;7.584;2023-08-06T09:01:24;1.10;;;0.55;;
79249;SDS011;68679;51.030;7.584;2023-08-06T09:03:50;2.55;;;1.20;;
79249;SDS011;68679;51.030;7.584;2023-08-06T09:06:17;2.40;;;1.38;;
79249;SDS011;68679;51.030;7.584;2023-08-06T09:08:51;2.17;;;1.23;;
79249;SDS011;68679;51.030;7.584;2023-08-06T09:11:26;3.55;;;1.48;;
79249;SDS011;68679;51.030;7.584;2023-08-06T09:13:52;2.72;;;1.58;;
79249;SDS011;68679;51.030;7.584;2023-08-06T09:16:18;3.97;;;2.10;;
79249;SDS011;68679;51.030;7.584;2023-08-06T09:18:44;3.27;;;1.90;;
79249;SDS011;68679;51.030;7.584;2023-08-06T09:21:13;3.20;;;2.03;;
79249;SDS011;68679;51.030;7.584;2023-08-06T09:23:40;3.00;;;1.80;;
79249;SDS011;68679;51.030;7.584;2023-08-06T09:26:05;3.50;;;2.23;;
79249;SDS011;68679;51.030;7.584;2023-08-06T09:28:37;3.70;;;2.43;;
79249;SDS011;68679;51.030;7.584;2023-08-06T09:31:08;4.95;;;2.80;;
79249;SDS011;68679;51.030;7.584;2023-08-06T09:33:35;4.60;;;3.20;;
79249;SDS011;68679;51.030;7.584;2023-08-06T09:36:11;6.00;;;2.97;;
79249;SDS011;68679;51.030;7.584;2023-08-06T09:38:37;6.43;;;3.55;;
79249;SDS011;68679;51.030;7.584;2023-08-06T09:41:04;4.95;;;3.53;;
79249;SDS011;68679;51.030;7.584;2023-08-06T09:43:29;7.57;;;3.40;;
79249;SDS011;68679;51.030;7.584;2023-08-06T09:45:54;5.73;;;3.27;;
79249;SDS011;68679;51.030;7.584;2023-08-06T09:48:20;6.50;;;3.10;;
79249;SDS011;68679;51.030;7.584;2023-08-06T09:53:17;4.72;;;2.78;;
79249;SDS011;68679;51.030;7.584;2023-08-06T09:55:44;4.75;;;2.97;;
79249;SDS011;68679;51.030;7.584;2023-08-06T09:58:13;6.45;;;3.03;;
79249;SDS011;68679;51.030;7.584;2023-08-06T10:00:39;4.15;;;2.40;;
79249;SDS011;68679;51.030;7.584;2023-08-06T10:03:05;6.82;;;2.63;;
79249;SDS011;68679;51.030;7.584;2023-08-06T10:05:31;3.55;;;2.30;;
79249;SDS011;68679;51.030;7.584;2023-08-06T10:07:57;3.58;;;2.22;;
79249;SDS011;68679;51.030;7.584;2023-08-06T10:10:24;4.10;;;2.13;;
79249;SDS011;68679;51.030;7.584;2023-08-06T10:12:51;3.72;;;2.58;;
79249;SDS011;68679;51.030;7.584;2023-08-06T10:15:21;6.07;;;3.25;;
79249;SDS011;68679;51.030;7.584;2023-08-06T10:17:50;5.45;;;3.63;;
79249;SDS011;68679;51.030;7.584;2023-08-06T10:20:17;6.32;;;3.55;;
79249;SDS011;68679;51.030;7.584;2023-08-06T10:22:44;4.43;;;3.15;;
79249;SDS011;68679;51.030;7.584;2023-08-06T10:25:10;6.18;;;3.92;;
79249;SDS011;68679;51.030;7.584;2023-08-06T10:27:39;6.13;;;4.05;;
79249;SDS011;68679;51.030;7.584;2023-08-06T10:30:22;6.05;;;4.03;;
79249;SDS011;68679;51.030;7.584;2023-08-06T10:32:51;6.07;;;3.35;;
79249;SDS011;68679;51.030;7.584;2023-08-06T10:35:37;5.03;;;2.88;;
79249;SDS011;68679;51.030;7.584;2023-08-06T10:38:09;4.95;;;3.30;;
79249;SDS011;68679;51.030;7.584;2023-08-06T10:40:36;4.53;;;3.05;;
79249;SDS011;68679;51.030;7.584;2023-08-06T10:43:04;5.82;;;3.75;;
79249;SDS011;68679;51.030;7.584;2023-08-06T10:45:34;6.50;;;3.17;;
79249;SDS011;68679;51.030;7.584;2023-08-06T10:48:00;5.75;;;3.83;;
79249;SDS011;68679;51.030;7.584;2023-08-06T10:50:26;5.25;;;3.65;;
79249;SDS011;68679;51.030;7.584;2023-08-06T10:52:52;6.90;;;3.27;;
79249;SDS011;68679;51.030;7.584;2023-08-06T10:55:28;5.20;;;3.50;;
79249;SDS011;68679;51.030;7.584;2023-08-06T10:57:54;4.93;;;3.53;;
79249;SDS011;68679;51.030;7.584;2023-08-06T11:00:21;5.35;;;3.70;;
79249;SDS011;68679;51.030;7.584;2023-08-06T11:02:48;5.35;;;3.38;;
79249;SDS011;68679;51.030;7.584;2023-08-06T11:05:16;5.20;;;3.65;;
79249;SDS011;68679;51.030;7.584;2023-08-06T11:07:42;4.40;;;2.63;;
79249;SDS011;68679;51.030;7.584;2023-08-06T11:10:08;6.03;;;3.78;;
79249;SDS011;68679;51.030;7.584;2023-08-06T11:12:35;4.82;;;3.53;;
79249;SDS011;68679;51.030;7.584;2023-08-06T11:15:01;6.18;;;3.20;;
79249;SDS011;68679;51.030;7.584;2023-08-06T11:17:28;6.30;;;3.22;;
79249;SDS011;68679;51.030;7.584;2023-08-06T11:19:55;4.28;;;3.17;;
79249;SDS011;68679;51.030;7.584;2023-08-06T11:22:23;4.82;;;3.38;;
79249;SDS011;68679;51.030;7.584;2023-08-06T11:24:49;5.10;;;3.37;;
79249;SDS011;68679;51.030;7.584;2023-08-06T11:27:16;6.50;;;3.55;;
79249;SDS011;68679;51.030;7.584;2023-08-06T11:29:43;5.15;;;3.35;;
79249;SDS011;68679;51.030;7.584;2023-08-06T11:32:09;4.20;;;2.92;;
79249;SDS011;68679;51.030;7.584;2023-08-06T11:34:36;5.82;;;2.92;;
79249;SDS011;68679;51.030;7.584;2023-08-06T11:37:04;6.30;;;2.58;;
79249;SDS011;68679;51.030;7.584;2023-08-06T11:39:37;6.90;;;2.10;;
79249;SDS011;68679;51.030;7.584;2023-08-06T11:42:03;3.63;;;2.47;;
79249;SDS011;68679;51.030;7.584;2023-08-06T11:44:30;3.40;;;2.28;;
79249;SDS011;68679;51.030;7.584;2023-08-06T11:46:58;3.67;;;2.03;;
79249;SDS011;68679;51.030;7.584;2023-08-06T11:52:18;1.73;;;0.77;;
79249;SDS011;68679;51.030;7.584;2023-08-06T11:55:01;3.55;;;1.13;;
79249;SDS011;68679;51.030;7.584;2023-08-06T11:57:29;1.92;;;0.70;;
79249;SDS011;68679;51.030;7.584;2023-08-06T11:59:58;0.93;;;0.65;;
79249;SDS011;68679;51.030;7.584;2023-08-06T12:02:27;2.58;;;0.65;;
79249;SDS011;68679;51.030;7.584;2023-08-06T12:05:32;1.92;;;0.43;;
79249;SDS011;68679;51.030;7.584;2023-08-06T12:07:55;1.05;;;0.60;;
79249;SDS011;68679;51.030;7.584;2023-08-06T12:10:22;1.05;;;0.60;;
79249;SDS011;68679;51.030;7.584;2023-08-06T12:12:50;1.05;;;0.50;;
79249;SDS011;68679;51.030;7.584;2023-08-06T12:15:15;0.90;;;0.60;;
79249;SDS011;68679;51.030;7.584;2023-08-06T12:17:41;0.32;;;0.32;;
79249;SDS011;68679;51.030;7.584;2023-08-06T12:20:07;2.72;;;0.60;;
79249;SDS011;68679;51.030;7.584;2023-08-06T12:22:33;3.53;;;2.15;;
79249;SDS011;68679;51.030;7.584;2023-08-06T12:25:03;2.13;;;1.20;;
79249;SDS011;68679;51.030;7.584;2023-08-06T12:27:42;4.20;;;2.95;;
79249;SDS011;68679;51.030;7.584;2023-08-06T12:30:09;1.77;;;0.60;;
79249;SDS011;68679;51.030;7.584;2023-08-06T12:32:38;2.10;;;0.73;;
79249;SDS011;68679;51.030;7.584;2023-08-06T12:35:04;1.80;;;0.70;;
79249;SDS011;68679;51.030;7.584;2023-08-06T12:37:30;2.55;;;1.08;;
79249;SDS011;68679;51.030;7.584;2023-08-06T12:39:55;2.92;;;0.65;;
79249;SDS011;68679;51.030;7.584;2023-08-06T12:42:20;2.80;;;1.20;;
79249;SDS011;68679;51.030;7.584;2023-08-06T12:44:47;1.63;;;1.00;;
79249;SDS011;68679;51.030;7.584;2023-08-06T12:47:13;1.60;;;0.82;;
79249;SDS011;68679;51.030;7.584;2023-08-06T12:49:38;2.77;;;1.43;;
79249;SDS011;68679;51.030;7.584;2023-08-06T12:52:04;1.83;;;1.00;;
79249;SDS011;68679;51.030;7.584;2023-08-06T12:54:32;2.22;;;1.20;;
79249;SDS011;68679;51.030;7.584;2023-08-06T12:57:04;1.58;;;0.88;;
79249;SDS011;68679;51.030;7.584;2023-08-06T12:59:30;1.88;;;1.00;;
79249;SDS011;68679;51.030;7.584;2023-08-06T13:01:55;3.75;;;1.52;;
79249;SDS011;68679;51.030;7.584;2023-08-06T13:04:21;3.20;;;1.30;;
79249;SDS011;68679;51.030;7.584;2023-08-06T13:06:46;3.90;;;1.10;;
79249;SDS011;68679;51.030;7.584;2023-08-06T13:09:12;2.87;;;1.20;;
79249;SDS011;68679;51.030;7.584;2023-08-06T13:11:38;5.07;;;1.33;;
79249;SDS011;68679;51.030;7.584;2023-08-06T13:14:05;2.45;;;1.40;;
79249;SDS011;68679;51.030;7.584;2023-08-06T13:16:32;3.78;;;1.55;;
79249;SDS011;68679;51.030;7.584;2023-08-06T13:18:58;4.68;;;1.70;;
79249;SDS011;68679;51.030;7.584;2023-08-06T13:21:24;4.25;;;1.48;;
79249;SDS011;68679;51.030;7.584;2023-08-06T13:23:49;3.53;;;1.20;;
79249;SDS011;68679;51.030;7.584;2023-08-06T13:26:14;2.72;;;1.30;;
79249;SDS011;68679;51.030;7.584;2023-08-06T13:28:41;1.92;;;1.10;;
79249;SDS011;68679;51.030;7.584;2023-08-06T13:31:06;3.10;;;1.10;;
79249;SDS011;68679;51.030;7.584;2023-08-06T13:33:32;1.98;;;1.00;;
79249;SDS011;68679;51.030;7.584;2023-08-06T13:35:57;11.17;;;2.40;;
79249;SDS011;68679;51.030;7.584;2023-08-06T13:38:22;2.50;;;0.93;;
79249;SDS011;68679;51.030;7.584;2023-08-06T13:40:47;0.83;;;0.53;;
79249;SDS011;68679;51.030;7.584;2023-08-06T13:43:13;4.60;;;2.15;;
79249;SDS011;68679;51.030;7.584;2023-08-06T13:45:40;1.35;;;0.93;;
79249;SDS011;68679;51.030;7.584;2023-08-06T13:48:06;3.73;;;1.03;;
79249;SDS011;68679;51.030;7.584;2023-08-06T13:50:31;1.55;;;0.75;;
79249;SDS011;68679;51.030;7.584;2023-08-06T13:52:58;0.98;;;0.70;;
79249;SDS011;68679;51.030;7.584;2023-08-06T13:55:24;1.47;;;0.90;;
79249;SDS011;68679;51.030;7.584;2023-08-06T13:57:49;1.43;;;0.80;;
79249;SDS011;68679;51.030;7.584;2023-08-06T14:00:14;1.65;;;0.90;;
79249;SDS011;68679;51.030;7.584;2023-08-06T14:02:40;2.85;;;1.00;;
79249;SDS011;68679;51.030;7.584;2023-08-06T14:05:06;2.17;;;0.90;;
79249;SDS011;68679;51.030;7.584;2023-08-06T14:07:32;1.60;;;1.00;;
79249;SDS011;68679;51.030;7.584;2023-08-06T14:09:57;1.92;;;0.60;;
79249;SDS011;68679;51.030;7.584;2023-08-06T14:12:23;2.72;;;1.00;;
79249;SDS011;68679;51.030;7.584;2023-08-06T14:14:48;1.93;;;1.03;;
79249;SDS011;68679;51.030;7.584;2023-08-06T14:17:14;2.53;;;1.03;;
79249;SDS011;68679;51.030;7.584;2023-08-06T14:19:40;2.40;;;1.20;;
79249;SDS011;68679;51.030;7.584;2023-08-06T14:22:06;3.43;;;1.70;;
79249;SDS011;68679;51.030;7.584;2023-08-06T14:24:31;3.27;;;1.60;;
79249;SDS011;68679;51.030;7.584;2023-08-06T14:26:56;3.53;;;1.80;;
79249;SDS011;68679;51.030;7.584;2023-08-06T14:29:21;3.43;;;1.50;;
79249;SDS011;68679;51.030;7.584;2023-08-06T14:31:47;3.28;;;1.73;;
79249;SDS011;68679;51.030;7.584;2023-08-06T14:34:12;1.57;;;1.00;;
79249;SDS011;68679;51.030;7.584;2023-08-06T14:36:37;3.73;;;1.70;;
79249;SDS011;68679;51.030;7.584;2023-08-06T14:39:03;2.77;;;1.47;;
79249;SDS011;68679;51.030;7.584;2023-08-06T14:41:28;3.42;;;1.90;;
79249;SDS011;68679;51.030;7.584;2023-08-06T14:43:53;3.08;;;1.65;;
79249;SDS011;68679;51.030;7.584;2023-08-06T14:46:19;3.88;;;1.50;;
79249;SDS011;68679;51.030;7.584;2023-08-06T14:48:44;3.95;;;1.73;;
79249;SDS011;68679;51.030;7.584;2023-08-06T14:51:10;3.27;;;1.57;;